Flight Track Log - Related Links

Times and Time Zones

All times are in EDT time to prevent confusion due to time zone crossing. See the LV-CSD flight status page for this flight to view local times or setup timezone preferences in your user account.

Time Position Orientation Groundspeed Altitude Reporting Facility
EDT Latitude Longitude Course Direction KTS MPH feet Rate Location/Type
Sun 04:25:00 PM -33.4404 -59.1907 338° Northwest  Level Estimated
Sun 04:26:00 PM -33.3230 -59.2458 339° North  Level Estimated
Sun 04:27:00 PM -33.2056 -59.3008 339° North  Level Estimated
Sun 04:28:00 PM -33.0882 -59.3556 339° North  Level Estimated
Sun 04:29:00 PM -32.9707 -59.4102 339° North  Level Estimated
Sun 04:30:00 PM -32.8533 -59.4648 339° North  Level Estimated
Sun 04:31:00 PM -32.7358 -59.5191 339° North  Level Estimated
Sun 04:32:00 PM -32.6183 -59.5734 339° North  Level Estimated
Sun 04:33:00 PM -32.5007 -59.6275 339° North  Level Estimated
Sun 04:34:00 PM -32.3831 -59.6814 339° North  Level Estimated
Sun 04:35:00 PM -32.2656 -59.7352 339° North  Level Estimated
Sun 04:36:00 PM -32.1479 -59.7889 339° North  Level Estimated
Sun 04:37:00 PM -32.0294 -59.8394 340° North  Level FlightAware Approximate
Sun 04:38:00 PM -31.9108 -59.8898 340° North  Level FlightAware Approximate
Sun 04:39:00 PM -31.7922 -59.9401 340° North  Level FlightAware Approximate
Sun 04:40:00 PM -31.6735 -59.9902 340° North  Level FlightAware Approximate
Sun 04:41:00 PM -31.5549 -60.0402 340° North  Level FlightAware Approximate
Sun 04:42:00 PM -31.4362 -60.0901 340° North  Level FlightAware Approximate
Sun 04:43:00 PM -31.3176 -60.1398 340° North  Level FlightAware Approximate
Sun 04:44:00 PM -31.1989 -60.1894 340° North  Level FlightAware Approximate
Sun 04:45:00 PM -31.0801 -60.2389 340° North  Level FlightAware Approximate
Sun 04:46:00 PM -29.8774 -60.7332 340° North  Level FlightAware Approximate
Sun 04:47:00 PM -28.6729 -61.2156 341° North  Level FlightAware Approximate
Sun 04:48:00 PM -27.4667 -61.6870 341° North  Level FlightAware Approximate
Sun 04:49:00 PM -26.2589 -62.1483 341° North  Level FlightAware Approximate
Sun 04:50:00 PM -25.1148 -62.5759 341° North  Level FlightAware Approximate
Sun 04:51:00 PM -23.9695 -62.9956 341° North  Level FlightAware Approximate
Sun 04:52:00 PM -22.8231 -63.4080 342° North  Level FlightAware Approximate
Sun 04:53:00 PM -21.6756 -63.8134 342° North  Level FlightAware Approximate
Sun 04:54:00 PM -20.5271 -64.2124 342° North  Level FlightAware Approximate
Sun 04:55:00 PM -19.4347 -64.5862 342° North  Level FlightAware Approximate
Sun 04:56:00 PM -18.3414 -64.9549 342° North  Level FlightAware Approximate
Sun 04:57:00 PM -17.2475 -65.3191 342° North  Level FlightAware Approximate
Sun 04:58:00 PM -16.1529 -65.6789 342° North  Level FlightAware Approximate
Sun 04:59:00 PM -14.9577 -66.0671 343° North  Level FlightAware Approximate
Sun 05:00:00 PM -13.7619 -66.4510 343° North  Level FlightAware Approximate
Sun 05:01:00 PM -12.5655 -66.8309 343° North  Level FlightAware Approximate
Sun 05:02:00 PM -11.3686 -67.2074 343° North  Level FlightAware Approximate
Sun 05:03:00 PM -10.1712 -67.5806 343° North  Level FlightAware Approximate
Sun 05:04:00 PM -8.9734 -67.9511 343° North  Level FlightAware Approximate
Sun 05:05:00 PM -7.7752 -68.3192 343° North  Level FlightAware Approximate
Sun 05:06:00 PM -6.5767 -68.6852 343° North  Level FlightAware Approximate
Sun 05:07:00 PM -5.3779 -69.0494 343° North  Level FlightAware Approximate
Sun 05:08:00 PM -4.1789 -69.4121 343° North  Level FlightAware Approximate
Sun 05:09:00 PM -2.9797 -69.7738 343° North  Level FlightAware Approximate
Sun 05:10:00 PM -1.8562 -70.1119 343° North  Level FlightAware Approximate
Sun 05:11:00 PM -0.7326 -70.4496 343° North  Level FlightAware Approximate
Sun 05:12:00 PM 0.3910 -70.7871 343° North  Level FlightAware Approximate
Sun 05:13:00 PM 1.5142 -71.1262 343° North  Level FlightAware Approximate
Sun 05:14:00 PM 2.6368 -71.4671 343° North  Level FlightAware Approximate
Sun 05:15:00 PM 3.7587 -71.8109 343° North  Level FlightAware Approximate
Sun 05:15:32 PM 25.7890 -80.2810 343° North 15 17  Level FlightAware ADS-B
Sun 05:16:01 PM 25.7890 -80.2800 90° East 26 30  Level FlightAware ADS-B
Sun 05:16:09 PM 25.7890 -80.2790 90° East 29 33  Level FlightAware ADS-B
Sun 05:16:33 PM 25.7890 -80.2780 90° East 26 30  Level FlightAware ADS-B
Sun 05:17:15 PM 25.7890 -80.2760 90° East 25 29  Level FlightAware ADS-B
Sun 05:17:28 PM 25.7890 -80.2750 90° East 27 31  Level FlightAware ADS-B
Sun 05:17:44 PM 25.7900 -80.2750 360° North 24 28  Level FlightAware ADS-B
Sun 05:18:25 PM 25.7920 -80.2750 360° North 17 20  Level FlightAware ADS-B
Sun 05:18:51 PM 25.7920 -80.2740 90° East 13 15  Level FlightAware ADS-B

Login

Don't have an account? Register now (free) for customized features, flight alerts, and more!